createdAt,value
2022-10-31T00:00:11.985Z,1010.2
2022-10-31T00:01:11.952Z,1010
2022-10-31T00:02:11.986Z,1009.95
2022-10-31T00:03:11.931Z,1009.67
2022-10-31T00:04:14.686Z,1009.74
2022-10-31T00:05:11.931Z,1009.88
2022-10-31T00:06:11.937Z,1010.15
2022-10-31T00:07:11.935Z,1009.8
2022-10-31T00:08:11.944Z,1009.73
2022-10-31T00:09:11.998Z,1009.51
2022-10-31T00:10:11.942Z,1009.36
2022-10-31T00:11:11.940Z,1009.63
2022-10-31T00:12:11.944Z,1009.8
2022-10-31T00:13:12.009Z,1009.68
2022-10-31T00:14:11.950Z,1009.68
2022-10-31T00:15:14.821Z,1010.17
2022-10-31T00:16:11.964Z,1010.32
2022-10-31T00:17:11.983Z,1010.02
2022-10-31T00:18:11.955Z,1009.68
2022-10-31T00:19:11.957Z,1010.09
2022-10-31T00:20:11.956Z,1010.06
2022-10-31T00:21:11.956Z,1009.49
2022-10-31T00:22:11.964Z,1009.11
2022-10-31T00:23:11.985Z,1009.13
2022-10-31T00:24:11.960Z,1008.86
2022-10-31T00:25:11.969Z,1008.73
2022-10-31T00:26:11.968Z,1008.35
2022-10-31T00:27:11.969Z,1007.79
2022-10-31T00:28:12.050Z,1007.43
2022-10-31T00:29:11.972Z,1007.34
2022-10-31T00:30:11.972Z,1007.21
2022-10-31T00:31:11.983Z,1006.79
2022-10-31T00:32:11.978Z,1006.82
2022-10-31T00:33:12.006Z,1006.34
2022-10-31T00:34:11.978Z,1006.02
2022-10-31T00:35:12.011Z,1005.94
2022-10-31T00:36:11.984Z,1005.79
2022-10-31T00:37:11.985Z,1005.59
2022-10-31T00:38:11.991Z,1005.21
2022-10-31T00:39:11.985Z,1005.03
2022-10-31T00:40:11.989Z,1005.11
2022-10-31T00:41:14.732Z,1005.15
2022-10-31T00:42:11.993Z,1004.81
2022-10-31T00:44:11.999Z,1004.44
2022-10-31T00:45:12.014Z,1004.32
2022-10-31T00:46:12.157Z,1004.2
2022-10-31T00:47:12.006Z,1004.04
2022-10-31T00:48:12.000Z,1003.57
2022-10-31T00:49:12.029Z,1003.2
2022-10-31T00:50:12.005Z,1002.97
2022-10-31T00:51:12.008Z,1002.83
2022-10-31T00:52:12.018Z,1002.18
2022-10-31T00:53:12.012Z,1001.83
2022-10-31T00:54:12.013Z,1001.8
2022-10-31T00:55:12.016Z,1001.86
2022-10-31T00:56:12.016Z,1001.19
2022-10-31T00:57:12.022Z,1000.88
2022-10-31T00:58:12.098Z,1000.37
2022-10-31T00:59:12.022Z,1000.35
2022-10-31T01:00:12.022Z,1000.49
2022-10-31T01:01:12.094Z,1000.2
2022-10-31T01:02:12.134Z,1000.05
2022-10-31T01:03:12.028Z,1000.23
2022-10-31T01:04:12.030Z,1000.5
2022-10-31T01:05:12.051Z,1000.38
2022-10-31T01:06:12.029Z,1000.17
2022-10-31T01:07:12.037Z,1000.58
2022-10-31T01:08:12.037Z,1000.89
2022-10-31T01:09:12.056Z,1000.7
2022-10-31T01:10:12.053Z,1000.79
2022-10-31T01:11:12.054Z,999.91
2022-10-31T01:12:12.041Z,999.17
2022-10-31T01:13:12.081Z,998
2022-10-31T01:14:12.046Z,997.05
2022-10-31T01:15:12.047Z,996.31
2022-10-31T01:16:12.055Z,996.09
2022-10-31T01:17:12.050Z,995.88
2022-10-31T01:18:12.050Z,996.08
2022-10-31T01:19:12.055Z,995.99
2022-10-31T01:20:12.061Z,996.31
2022-10-31T01:21:12.078Z,995.97
2022-10-31T01:22:12.059Z,995.88
2022-10-31T01:23:12.061Z,995.73
2022-10-31T01:24:12.080Z,995.42
2022-10-31T01:25:12.065Z,994.75
2022-10-31T01:26:12.081Z,994.49
2022-10-31T01:27:12.067Z,994.11
2022-10-31T01:28:12.143Z,993.78
2022-10-31T01:29:12.068Z,994.01
2022-10-31T01:30:12.076Z,993.79
2022-10-31T01:31:12.075Z,993.54
2022-10-31T01:32:12.096Z,993.46
2022-10-31T01:33:12.086Z,993.08
2022-10-31T01:34:12.077Z,993.09
2022-10-31T01:35:12.085Z,992.83
2022-10-31T01:36:12.090Z,993.01
2022-10-31T01:37:12.104Z,993.07
2022-10-31T01:38:12.087Z,992.86
2022-10-31T01:39:12.087Z,993.21
2022-10-31T01:40:12.102Z,992.88
2022-10-31T01:41:12.098Z,992.98
2022-10-31T01:42:12.087Z,993.26
2022-10-31T01:43:12.138Z,993.44
2022-10-31T01:44:12.094Z,993.54
2022-10-31T01:45:12.108Z,993.73
2022-10-31T01:46:12.096Z,993.91
2022-10-31T01:47:12.175Z,993.64
2022-10-31T01:48:12.100Z,994.22
2022-10-31T01:49:12.103Z,994.02
2022-10-31T01:50:12.108Z,994.11
2022-10-31T01:51:12.105Z,994.36
2022-10-31T01:52:12.112Z,994.5
2022-10-31T01:53:12.136Z,994.26
2022-10-31T01:54:12.120Z,994.6
2022-10-31T01:55:12.112Z,995.11
2022-10-31T01:56:12.118Z,994.78
2022-10-31T01:57:12.118Z,995.14
2022-10-31T01:58:15.189Z,994.64
2022-10-31T01:59:12.117Z,993.82
2022-10-31T02:00:12.120Z,993.78
2022-10-31T02:01:12.242Z,993.22
2022-10-31T02:02:12.244Z,992.88
2022-10-31T02:03:12.131Z,992.4
2022-10-31T02:04:12.130Z,991.99
2022-10-31T02:05:12.155Z,991.5
2022-10-31T02:06:12.131Z,990.77
2022-10-31T02:07:12.134Z,990.32
2022-10-31T02:08:12.159Z,989.62
2022-10-31T02:09:16.184Z,989.09
2022-10-31T02:10:12.136Z,988.76
2022-10-31T02:11:12.138Z,987.83
2022-10-31T02:12:12.137Z,987.5
2022-10-31T02:13:12.179Z,986.76
2022-10-31T02:14:12.143Z,986.29
2022-10-31T02:15:12.149Z,985.69
2022-10-31T02:16:12.152Z,985.27
2022-10-31T02:17:12.154Z,984.99
2022-10-31T02:18:12.163Z,984.72
2022-10-31T02:19:12.155Z,984.63
2022-10-31T02:20:15.274Z,984.5
2022-10-31T02:21:12.154Z,984.02
2022-10-31T02:22:12.153Z,983.54
2022-10-31T02:23:12.161Z,982.92
2022-10-31T02:24:12.172Z,982.66
2022-10-31T02:25:12.250Z,982.77
2022-10-31T02:26:12.163Z,982.39
2022-10-31T02:27:12.163Z,982.21
2022-10-31T02:28:12.212Z,982.36
2022-10-31T02:29:12.169Z,982.32
2022-10-31T02:30:12.167Z,982.32
2022-10-31T02:31:15.284Z,982.18
2022-10-31T02:32:12.182Z,982.07
2022-10-31T02:33:12.181Z,981.83
2022-10-31T02:34:12.174Z,981.83
2022-10-31T02:35:12.182Z,982.05
2022-10-31T02:36:12.181Z,981.93
2022-10-31T02:37:12.210Z,981.94
2022-10-31T02:38:12.181Z,981.97
2022-10-31T02:39:12.183Z,981.59
2022-10-31T02:40:12.184Z,981.46
2022-10-31T02:41:12.210Z,981.1
2022-10-31T02:42:15.223Z,980.7
2022-10-31T02:43:12.189Z,980.69
2022-10-31T02:44:12.189Z,979.99
2022-10-31T02:45:12.201Z,979.79
2022-10-31T02:46:12.201Z,979.31
2022-10-31T02:47:12.197Z,978.89
2022-10-31T02:48:12.199Z,978.98
2022-10-31T02:49:12.199Z,978.57
2022-10-31T02:50:12.205Z,977.79
2022-10-31T02:51:12.207Z,977.88
2022-10-31T02:52:12.216Z,977.45
2022-10-31T02:53:12.205Z,977.4
2022-10-31T02:54:12.236Z,977.3
2022-10-31T02:55:12.212Z,977.19
2022-10-31T02:56:12.219Z,977
2022-10-31T02:57:12.237Z,976.86
2022-10-31T02:58:12.240Z,976.73
2022-10-31T02:59:12.215Z,976.54
2022-10-31T03:00:12.216Z,976.32
2022-10-31T03:01:12.292Z,976.15
2022-10-31T03:02:12.361Z,975.79
2022-10-31T03:03:12.224Z,975.38
2022-10-31T03:04:12.223Z,975.04
2022-10-31T03:05:12.228Z,974.34
2022-10-31T03:06:12.229Z,974.12
2022-10-31T03:07:12.228Z,973.73
2022-10-31T03:08:12.232Z,973.25
2022-10-31T03:09:12.232Z,973.09
2022-10-31T03:10:12.251Z,973.2
2022-10-31T03:11:12.235Z,973.55
2022-10-31T03:12:12.249Z,973.2
2022-10-31T03:13:12.453Z,973.39
2022-10-31T03:14:12.258Z,973.6
2022-10-31T03:15:12.245Z,973.69
2022-10-31T03:16:12.280Z,973.78
2022-10-31T03:17:12.246Z,974.01
2022-10-31T03:18:12.257Z,974.61
2022-10-31T03:19:12.246Z,974.73
2022-10-31T03:20:12.250Z,974.41
2022-10-31T03:21:12.272Z,974.34
2022-10-31T03:22:12.253Z,974.22
2022-10-31T03:23:12.256Z,974.11
2022-10-31T03:24:12.257Z,973.51
2022-10-31T03:25:12.267Z,973.48
2022-10-31T03:26:12.284Z,972.96
2022-10-31T03:27:12.262Z,972.96
2022-10-31T03:28:12.377Z,972.5
2022-10-31T03:29:12.298Z,972.08
2022-10-31T03:30:12.268Z,971.84
2022-10-31T03:31:12.289Z,971.88
2022-10-31T03:32:12.283Z,971.86
2022-10-31T03:33:12.285Z,971.9
2022-10-31T03:34:12.271Z,971.44
2022-10-31T03:35:12.276Z,971.35
2022-10-31T03:36:12.301Z,970.75
2022-10-31T03:37:12.282Z,970.83
2022-10-31T03:38:12.283Z,970.48
2022-10-31T03:39:12.280Z,970.04
2022-10-31T03:40:12.296Z,970.16
2022-10-31T03:41:12.307Z,970.64
2022-10-31T03:42:12.291Z,970.43
2022-10-31T03:43:12.340Z,970.61
2022-10-31T03:44:12.290Z,970.46
2022-10-31T03:45:12.323Z,970.82
2022-10-31T03:46:12.342Z,971.39
2022-10-31T03:47:12.295Z,971.67
2022-10-31T03:48:12.296Z,972.68
2022-10-31T03:49:12.296Z,973
2022-10-31T03:50:12.299Z,973.37
2022-10-31T03:51:12.323Z,973.5
2022-10-31T03:52:12.322Z,974.41
2022-10-31T03:53:12.302Z,974.58
2022-10-31T03:54:12.303Z,975.24
2022-10-31T03:55:12.313Z,975.44
2022-10-31T03:56:12.340Z,975.77
2022-10-31T03:57:12.314Z,975.85
2022-10-31T03:58:12.353Z,976.47
2022-10-31T03:59:12.316Z,976.65
2022-10-31T04:00:12.317Z,977.17
2022-10-31T04:01:12.470Z,977.48
2022-10-31T04:02:12.440Z,977.71
2022-10-31T04:03:12.409Z,977.6
2022-10-31T04:04:12.322Z,977.71
2022-10-31T04:05:12.324Z,977.9
2022-10-31T04:06:12.357Z,977.66
2022-10-31T04:07:12.325Z,977.95
2022-10-31T04:08:12.329Z,977.95
2022-10-31T04:09:12.329Z,978.12
2022-10-31T04:10:12.332Z,978.74
2022-10-31T04:11:12.365Z,978.65
2022-10-31T04:12:12.337Z,978.91
2022-10-31T04:13:12.368Z,979.33
2022-10-31T04:14:12.345Z,979.32
2022-10-31T04:15:12.343Z,979.29
2022-10-31T04:16:14.174Z,979.24
2022-10-31T04:17:12.367Z,979.27
2022-10-31T04:18:12.348Z,979.05
2022-10-31T04:19:12.345Z,978.65
2022-10-31T04:20:12.355Z,978.65
2022-10-31T04:21:12.375Z,978.35
2022-10-31T04:22:12.361Z,978.41
2022-10-31T04:23:14.578Z,978.75
2022-10-31T04:24:12.376Z,978.35
2022-10-31T04:25:15.440Z,978.28
2022-10-31T04:26:12.381Z,978.18
2022-10-31T04:27:12.357Z,977.96
2022-10-31T04:28:12.420Z,977.66
2022-10-31T04:29:12.360Z,977.69
2022-10-31T04:30:12.363Z,977.6
2022-10-31T04:31:12.393Z,977.16
2022-10-31T04:32:12.367Z,977
2022-10-31T04:33:12.392Z,976.85
2022-10-31T04:34:12.369Z,976.2
2022-10-31T04:35:12.372Z,975.94
2022-10-31T04:36:13.706Z,975.25
2022-10-31T04:37:12.375Z,974.95
2022-10-31T04:38:12.382Z,974.65
2022-10-31T04:39:12.379Z,974.14
2022-10-31T04:40:12.381Z,973.56
2022-10-31T04:41:12.385Z,973.48
2022-10-31T04:42:12.386Z,973.25
2022-10-31T04:43:12.415Z,973.16
2022-10-31T04:44:12.386Z,972.63
2022-10-31T04:45:14.311Z,973.02
2022-10-31T04:46:12.390Z,972.75
2022-10-31T04:47:15.398Z,972.48
2022-10-31T04:48:12.393Z,972.18
2022-10-31T04:49:12.417Z,971.95
2022-10-31T04:50:12.397Z,971.31
2022-10-31T04:51:12.400Z,971.31
2022-10-31T04:52:12.397Z,971.01
2022-10-31T04:53:12.399Z,970.23
2022-10-31T04:54:12.402Z,969.94
2022-10-31T04:55:12.415Z,969.6
2022-10-31T04:56:12.412Z,969.07
2022-10-31T04:57:12.407Z,968.45
2022-10-31T04:58:18.203Z,967.97
2022-10-31T04:59:12.408Z,967.1
2022-10-31T05:00:12.414Z,966.36
2022-10-31T05:01:12.581Z,966.28
2022-10-31T05:02:12.555Z,965.66
2022-10-31T05:03:12.420Z,964.95
2022-10-31T05:04:12.419Z,964.33
2022-10-31T05:05:12.445Z,963.71
2022-10-31T05:06:12.422Z,963.52
2022-10-31T05:07:12.424Z,963.18
2022-10-31T05:08:12.424Z,962.46
2022-10-31T05:09:15.410Z,962.2
2022-10-31T05:10:12.439Z,962.01
2022-10-31T05:11:12.430Z,961.94
2022-10-31T05:12:12.436Z,961.37
2022-10-31T05:13:12.504Z,960.75
2022-10-31T05:14:12.434Z,960.67
2022-10-31T05:15:12.437Z,960.7
2022-10-31T05:16:12.447Z,960.01
2022-10-31T05:17:12.441Z,960.02
2022-10-31T05:18:12.444Z,959.68
2022-10-31T05:19:12.445Z,959.45
2022-10-31T05:20:12.445Z,959.56
2022-10-31T05:21:12.470Z,959.42
2022-10-31T05:22:12.448Z,959.69
2022-10-31T05:23:12.453Z,959.97
2022-10-31T05:24:12.449Z,960.27
2022-10-31T05:25:12.475Z,960.28
2022-10-31T05:26:12.451Z,960.41
2022-10-31T05:27:12.455Z,960.5
2022-10-31T05:28:12.464Z,960.5
2022-10-31T05:29:12.459Z,960.6
2022-10-31T05:30:13.511Z,961.07
2022-10-31T05:31:12.465Z,960.4
2022-10-31T05:32:12.461Z,960.74
2022-10-31T05:33:12.462Z,960.83
2022-10-31T05:34:12.464Z,961.16
2022-10-31T05:35:12.470Z,961.37
2022-10-31T05:36:12.470Z,961.51
2022-10-31T05:37:12.495Z,961.87
2022-10-31T05:38:15.484Z,962.09
2022-10-31T05:39:12.474Z,962.65
2022-10-31T05:40:12.585Z,962.45
2022-10-31T05:41:12.481Z,962.88
2022-10-31T05:42:12.478Z,962.68
2022-10-31T05:43:12.488Z,962.68
2022-10-31T05:44:12.499Z,962.42
2022-10-31T05:45:12.485Z,962.15
2022-10-31T05:46:12.484Z,961.73
2022-10-31T05:47:12.504Z,961.21
2022-10-31T05:48:12.487Z,960.67
2022-10-31T05:49:12.492Z,960.27
2022-10-31T05:50:12.491Z,959.94
2022-10-31T05:51:12.498Z,959.4
2022-10-31T05:52:12.523Z,959.64
2022-10-31T05:53:12.528Z,959.31
2022-10-31T05:54:15.807Z,959.61
2022-10-31T05:55:12.506Z,959.37
2022-10-31T05:56:12.531Z,959.49
2022-10-31T05:57:12.504Z,959.27
2022-10-31T05:58:12.503Z,959.48
2022-10-31T05:59:12.518Z,959.44
2022-10-31T06:00:12.509Z,959.14
2022-10-31T06:01:12.611Z,958.7
2022-10-31T06:02:12.514Z,958.78
2022-10-31T06:03:12.522Z,958.44
2022-10-31T06:04:12.565Z,958.45
2022-10-31T06:05:12.596Z,958.25
2022-10-31T06:06:12.518Z,957.83
2022-10-31T06:07:12.546Z,958.09
2022-10-31T06:08:12.520Z,958.45
2022-10-31T06:09:12.547Z,958.67
2022-10-31T06:10:12.525Z,958.74
2022-10-31T06:11:12.532Z,958.55
2022-10-31T06:12:12.552Z,958.58
2022-10-31T06:13:12.536Z,958.67
2022-10-31T06:14:12.534Z,958.38
2022-10-31T06:15:12.542Z,958.39
2022-10-31T06:16:12.535Z,958.31
2022-10-31T06:17:12.574Z,957.91
2022-10-31T06:18:12.537Z,957.85
2022-10-31T06:19:12.552Z,957.42
2022-10-31T06:20:12.542Z,957.75
2022-10-31T06:21:13.694Z,957.64
2022-10-31T06:22:12.564Z,957.59
2022-10-31T06:23:12.558Z,957.82
2022-10-31T06:24:12.549Z,958.31
2022-10-31T06:25:12.574Z,958.74
2022-10-31T06:26:12.550Z,958.65
2022-10-31T06:27:12.614Z,958.74
2022-10-31T06:28:12.556Z,958.93
2022-10-31T06:29:12.574Z,959.18
2022-10-31T06:30:12.562Z,959.37
2022-10-31T06:31:12.571Z,959.7
2022-10-31T06:32:12.585Z,959.68
2022-10-31T06:33:12.576Z,960.02
2022-10-31T06:34:12.565Z,960.5
2022-10-31T06:35:13.583Z,960.65
2022-10-31T06:36:12.671Z,960.74
2022-10-31T06:37:12.611Z,961.04
2022-10-31T06:38:12.581Z,961.43
2022-10-31T06:39:12.586Z,961.68
2022-10-31T06:40:12.599Z,961.37
2022-10-31T06:41:12.620Z,961.73
2022-10-31T06:42:12.602Z,962.15
2022-10-31T06:43:12.582Z,962.1
2022-10-31T06:44:12.587Z,962.4
2022-10-31T06:45:12.596Z,962.46
2022-10-31T06:46:12.591Z,962.58
2022-10-31T06:47:12.620Z,962.82
2022-10-31T06:48:16.991Z,963.22
2022-10-31T06:49:12.591Z,963.38
2022-10-31T06:50:12.591Z,963.61
2022-10-31T06:51:12.592Z,964.34
2022-10-31T06:52:13.789Z,964.71
2022-10-31T06:53:12.676Z,964.92
2022-10-31T06:54:12.595Z,965.48
2022-10-31T06:55:12.598Z,965.45
2022-10-31T06:56:12.601Z,965.92
2022-10-31T06:57:12.638Z,965.91
2022-10-31T06:58:12.602Z,966.51
2022-10-31T06:59:12.622Z,966.72
2022-10-31T07:00:12.607Z,967.46
2022-10-31T07:01:12.763Z,968.31
2022-10-31T07:02:12.723Z,968.74
2022-10-31T07:03:13.743Z,968.93
2022-10-31T07:04:12.612Z,969.93
2022-10-31T07:05:12.612Z,970.91
2022-10-31T07:06:12.621Z,971.03
2022-10-31T07:07:12.632Z,972.1
2022-10-31T07:08:12.618Z,972.75
2022-10-31T07:09:12.620Z,974
2022-10-31T07:11:12.624Z,976.19
2022-10-31T07:12:12.628Z,977.05
2022-10-31T07:13:12.653Z,977.85
2022-10-31T07:14:15.443Z,978.76
2022-10-31T07:15:12.647Z,980.04
2022-10-31T07:16:12.643Z,980.84
2022-10-31T07:17:12.646Z,982.17
2022-10-31T07:18:12.647Z,983.46
2022-10-31T07:19:12.647Z,984.65
2022-10-31T07:20:15.506Z,985.71
2022-10-31T07:21:12.641Z,986.89
2022-10-31T07:22:12.641Z,988.1
2022-10-31T07:23:12.641Z,989.28
2022-10-31T07:24:12.648Z,989.86
2022-10-31T07:25:15.686Z,990.23
2022-10-31T07:26:12.645Z,991.35
2022-10-31T07:27:12.662Z,992.09
2022-10-31T07:28:12.663Z,992.84
2022-10-31T07:29:12.676Z,993.12
2022-10-31T07:30:12.650Z,993.31
2022-10-31T07:31:12.655Z,993.85
2022-10-31T07:32:12.661Z,994.45
2022-10-31T07:33:12.657Z,995.36
2022-10-31T07:34:12.663Z,996.23
2022-10-31T07:35:12.664Z,996.87
2022-10-31T07:36:12.719Z,997.67
2022-10-31T07:37:12.667Z,998.62
2022-10-31T07:38:12.665Z,1000.36
2022-10-31T07:39:12.669Z,1001.77
2022-10-31T07:40:12.678Z,1002.39
2022-10-31T07:41:12.671Z,1003.27
2022-10-31T07:42:12.670Z,1004.22
2022-10-31T07:43:14.409Z,1005.32
2022-10-31T07:44:12.675Z,1007.11
2022-10-31T07:45:12.707Z,1009.5
2022-10-31T07:46:12.688Z,1011.09
2022-10-31T07:47:12.697Z,1012.15
2022-10-31T07:48:12.689Z,1013.68
2022-10-31T07:49:12.696Z,1016.3
2022-10-31T07:50:12.719Z,1018.58
2022-10-31T07:51:12.686Z,1020.98
2022-10-31T07:52:12.691Z,1023.08
2022-10-31T07:53:12.698Z,1024.95
2022-10-31T07:54:12.701Z,1026.08
2022-10-31T07:55:12.702Z,1027.31
2022-10-31T07:56:12.704Z,1028.9
2022-10-31T07:57:12.700Z,1030.28
2022-10-31T07:58:12.702Z,1032.26
2022-10-31T07:59:12.703Z,1033.86
2022-10-31T08:00:12.709Z,1036.23
2022-10-31T08:02:12.709Z,1039.6
2022-10-31T08:03:12.742Z,1040.42
2022-10-31T08:04:12.709Z,1041.13
2022-10-31T08:05:12.712Z,1041.96
2022-10-31T08:06:12.768Z,1042.77
2022-10-31T08:07:12.787Z,1043.15
2022-10-31T08:08:12.751Z,1043.5
2022-10-31T08:09:12.720Z,1043.66
2022-10-31T08:10:12.719Z,1043.92
2022-10-31T08:11:12.721Z,1044.11
2022-10-31T08:12:12.722Z,1044.92
2022-10-31T08:13:12.750Z,1045.64
2022-10-31T08:14:12.957Z,1045.84
2022-10-31T08:15:12.730Z,1047.05
2022-10-31T08:16:12.733Z,1048.64
2022-10-31T08:17:12.758Z,1049.95
2022-10-31T08:18:12.968Z,1051.09
2022-10-31T08:19:12.736Z,1052.42
2022-10-31T08:20:12.762Z,1053.4
2022-10-31T08:21:12.741Z,1054.78
2022-10-31T08:22:12.751Z,1056.09
2022-10-31T08:23:12.803Z,1057.43
2022-10-31T08:24:12.744Z,1058.86
2022-10-31T08:25:12.757Z,1060.26
2022-10-31T08:26:12.746Z,1061.44
2022-10-31T08:27:12.746Z,1062.66
2022-10-31T08:28:12.813Z,1063.5
2022-10-31T08:29:12.754Z,1064.53
2022-10-31T08:30:12.761Z,1065.31
2022-10-31T08:31:12.757Z,1066.01
2022-10-31T08:32:12.759Z,1066.76
2022-10-31T08:33:12.811Z,1066.99
2022-10-31T08:34:12.764Z,1067.2
2022-10-31T08:35:12.793Z,1067.69
2022-10-31T08:36:12.771Z,1068.18
2022-10-31T08:37:12.765Z,1069.08
2022-10-31T08:38:12.831Z,1069.59
2022-10-31T08:39:12.768Z,1070.3
2022-10-31T08:40:12.785Z,1071.01
2022-10-31T08:41:12.783Z,1071.53
2022-10-31T08:42:12.795Z,1072.12
2022-10-31T08:43:12.794Z,1072.62
2022-10-31T08:44:12.792Z,1072.51
2022-10-31T08:45:12.779Z,1072.89
2022-10-31T08:46:12.795Z,1072.99
2022-10-31T08:47:12.785Z,1073.4
2022-10-31T08:48:12.804Z,1073.87
2022-10-31T08:49:12.818Z,1074.58
2022-10-31T08:50:12.792Z,1075.23
2022-10-31T08:51:12.790Z,1076.4
2022-10-31T08:52:14.504Z,1077.45
2022-10-31T08:53:12.814Z,1078.42
2022-10-31T08:54:12.792Z,1079.38
2022-10-31T08:55:12.796Z,1080.64
2022-10-31T08:56:12.803Z,1081.82
2022-10-31T08:57:15.821Z,1083.15
2022-10-31T08:58:12.849Z,1084.14
2022-10-31T08:59:12.799Z,1084.81
2022-10-31T09:00:12.807Z,1086.26
2022-10-31T09:01:12.898Z,1087.6
2022-10-31T09:02:12.885Z,1088.74
2022-10-31T09:03:13.761Z,1089.62
2022-10-31T09:04:12.819Z,1091.11
2022-10-31T09:05:12.838Z,1093.24
2022-10-31T09:06:15.960Z,1094.54
2022-10-31T09:07:20.403Z,1095.85
2022-10-31T09:08:16.203Z,1097.68
2022-10-31T09:09:12.827Z,1099.1
2022-10-31T09:10:12.821Z,1100.46
2022-10-31T09:11:12.843Z,1102.5
2022-10-31T09:12:12.840Z,1104.16
2022-10-31T09:13:12.830Z,1105.95
2022-10-31T09:14:12.853Z,1107.61
2022-10-31T09:15:12.839Z,1109.92
2022-10-31T09:16:12.922Z,1112.37
2022-10-31T09:17:12.847Z,1114.23
2022-10-31T09:18:12.878Z,1115.18
2022-10-31T09:19:16.000Z,1116.09
2022-10-31T09:20:15.645Z,1116.31
2022-10-31T09:21:12.866Z,1116.4
2022-10-31T09:22:12.840Z,1116.63
2022-10-31T09:23:12.844Z,1116.96
2022-10-31T09:24:12.851Z,1117.66
2022-10-31T09:25:12.848Z,1118.54
2022-10-31T09:26:12.851Z,1118.94
2022-10-31T09:27:12.852Z,1118.73
2022-10-31T09:28:12.879Z,1118.74
2022-10-31T09:29:12.892Z,1118.67
2022-10-31T09:30:15.889Z,1118.71
2022-10-31T09:31:12.863Z,1119.14
2022-10-31T09:32:12.884Z,1119.86
2022-10-31T09:33:12.862Z,1120.58
2022-10-31T09:34:12.881Z,1121.26
2022-10-31T09:36:12.943Z,1122.99
2022-10-31T09:37:12.893Z,1123.56
2022-10-31T09:38:12.900Z,1124.3
2022-10-31T09:39:12.873Z,1124.69
2022-10-31T09:40:12.879Z,1125.08
2022-10-31T09:41:15.885Z,1126.29
2022-10-31T09:42:12.890Z,1127.65
2022-10-31T09:43:12.889Z,1128.46
2022-10-31T09:44:12.903Z,1129.38
2022-10-31T09:45:12.881Z,1130.13
2022-10-31T09:46:12.885Z,1130.78
2022-10-31T09:47:13.198Z,1131.37
2022-10-31T09:48:12.889Z,1131.98
2022-10-31T09:49:12.972Z,1132.75
2022-10-31T09:50:12.888Z,1133.18
2022-10-31T09:51:12.896Z,1133.71
2022-10-31T09:52:15.702Z,1134.16
2022-10-31T09:53:12.898Z,1134.57
2022-10-31T09:54:12.921Z,1135.07
2022-10-31T09:55:12.902Z,1135.43
2022-10-31T09:56:12.901Z,1135.66
2022-10-31T09:57:12.906Z,1135.77
2022-10-31T09:58:12.957Z,1135.99
2022-10-31T09:59:12.928Z,1136.15
2022-10-31T10:00:12.907Z,1136.31
2022-10-31T10:01:13.051Z,1136.43
2022-10-31T10:02:12.951Z,1136.51
2022-10-31T10:03:12.951Z,1136.56
2022-10-31T10:04:14.655Z,1136.62
2022-10-31T10:05:12.936Z,1136.59
2022-10-31T10:06:12.918Z,1136.6
2022-10-31T10:07:12.937Z,1136.59
2022-10-31T10:08:12.948Z,1136.51
2022-10-31T10:09:12.993Z,1136.46
2022-10-31T10:10:12.926Z,1136.31
2022-10-31T10:11:12.931Z,1136.24
2022-10-31T10:12:12.930Z,1136.16
2022-10-31T10:13:13.154Z,1136.04
2022-10-31T10:14:12.972Z,1135.98
2022-10-31T10:15:12.935Z,1135.87
2022-10-31T10:16:12.938Z,1135.73
2022-10-31T10:17:12.939Z,1135.61
2022-10-31T10:18:12.940Z,1135.39
2022-10-31T10:19:12.967Z,1135.26
2022-10-31T10:20:12.943Z,1135.22
2022-10-31T10:21:12.946Z,1135.28
2022-10-31T10:22:12.949Z,1135.35
2022-10-31T10:23:12.948Z,1135.37
2022-10-31T10:24:13.011Z,1135.36
2022-10-31T10:25:12.950Z,1135.29
2022-10-31T10:26:12.950Z,1135.23
2022-10-31T10:27:12.959Z,1135.04
2022-10-31T10:28:12.958Z,1134.88
2022-10-31T10:29:12.985Z,1134.68
2022-10-31T10:30:12.958Z,1134.43
2022-10-31T10:31:12.967Z,1134.24
2022-10-31T10:32:13.013Z,1134.03
2022-10-31T10:33:12.969Z,1133.8
2022-10-31T10:34:13.055Z,1133.6
2022-10-31T10:35:13.003Z,1133.42
2022-10-31T10:36:12.970Z,1133.33
2022-10-31T10:37:12.973Z,1133.22
2022-10-31T10:38:12.978Z,1133.13
2022-10-31T10:39:13.001Z,1133.04
2022-10-31T10:40:12.999Z,1132.81
2022-10-31T10:41:13.065Z,1132.64
2022-10-31T10:42:12.982Z,1132.38
2022-10-31T10:43:13.004Z,1132.29
2022-10-31T10:44:13.016Z,1132.24
2022-10-31T10:45:12.993Z,1132.27
2022-10-31T10:46:13.008Z,1132.38
2022-10-31T10:47:13.008Z,1132.45
2022-10-31T10:48:12.990Z,1132.46
2022-10-31T10:49:13.034Z,1132.32
2022-10-31T10:50:13.002Z,1132.17
2022-10-31T10:51:20.344Z,1132.02
2022-10-31T10:52:54.301Z,1131.72
2022-10-31T10:53:57.008Z,1131.63
2022-10-31T10:54:54.304Z,1131.57
2022-10-31T10:55:57.359Z,1131.6
2022-10-31T10:56:54.284Z,1131.79
2022-10-31T10:57:54.286Z,1132.01
2022-10-31T10:58:54.287Z,1132.21
2022-10-31T10:59:54.328Z,1132.4
2022-10-31T11:00:54.369Z,1132.53
2022-10-31T11:01:54.295Z,1132.58
2022-10-31T11:02:54.305Z,1132.52
2022-10-31T11:03:54.297Z,1132.56
2022-10-31T11:04:54.327Z,1132.62
2022-10-31T11:05:54.301Z,1132.58
2022-10-31T11:06:57.323Z,1132.54
2022-10-31T11:07:54.304Z,1132.58
2022-10-31T11:08:54.310Z,1132.58
2022-10-31T11:09:54.334Z,1132.54
2022-10-31T11:10:54.309Z,1132.56
2022-10-31T11:11:54.333Z,1132.57
2022-10-31T11:12:54.319Z,1132.53
2022-10-31T11:13:54.314Z,1132.64
2022-10-31T11:14:54.344Z,1132.57
2022-10-31T11:15:54.337Z,1132.48
2022-10-31T11:16:54.332Z,1132.45
2022-10-31T11:17:54.343Z,1132.47
2022-10-31T11:18:54.367Z,1132.53
2022-10-31T11:19:54.352Z,1132.62
2022-10-31T11:20:54.326Z,1132.7
2022-10-31T11:21:54.552Z,1132.82
2022-10-31T11:22:54.333Z,1132.97
2022-10-31T11:23:54.339Z,1133.03
2022-10-31T11:24:54.360Z,1133.07
2022-10-31T11:25:54.332Z,1133.07
2022-10-31T11:26:54.336Z,1133.12
2022-10-31T11:27:54.365Z,1133.06
2022-10-31T11:28:54.347Z,1133.14
2022-10-31T11:29:58.257Z,1133.26
2022-10-31T11:30:54.343Z,1133.32
2022-10-31T11:31:54.353Z,1133.37
2022-10-31T11:32:54.349Z,1133.49
2022-10-31T11:33:54.350Z,1133.48
2022-10-31T11:34:54.372Z,1133.58
2022-10-31T11:35:55.273Z,1133.73
2022-10-31T11:36:54.357Z,1133.82
2022-10-31T11:37:54.372Z,1133.93
2022-10-31T11:38:54.359Z,1133.96
2022-10-31T11:39:54.522Z,1133.93
2022-10-31T11:40:54.389Z,1133.9
2022-10-31T11:41:55.422Z,1133.82
2022-10-31T11:42:54.376Z,1133.76
2022-10-31T11:43:54.401Z,1133.6
2022-10-31T11:44:54.401Z,1133.54
2022-10-31T11:45:54.373Z,1133.35
2022-10-31T11:46:54.374Z,1133.23
2022-10-31T11:47:58.446Z,1133.03
2022-10-31T11:48:54.378Z,1132.91
2022-10-31T11:49:54.406Z,1132.83
2022-10-31T11:50:54.384Z,1132.75
2022-10-31T11:51:54.392Z,1132.7
2022-10-31T11:53:55.535Z,1132.69
2022-10-31T11:54:54.423Z,1132.57
2022-10-31T11:55:54.387Z,1132.55
2022-10-31T11:56:54.394Z,1132.44
2022-10-31T11:57:54.396Z,1132.4
2022-10-31T11:58:54.394Z,1132.42
2022-10-31T11:59:54.445Z,1132.42
2022-10-31T12:00:54.400Z,1132.31
2022-10-31T12:01:54.541Z,1132.31
2022-10-31T12:02:54.482Z,1132.29
2022-10-31T12:03:54.408Z,1132.28
2022-10-31T12:04:54.441Z,1132.27
2022-10-31T12:05:54.452Z,1132.26
2022-10-31T12:06:54.408Z,1132.29
2022-10-31T12:07:54.412Z,1132.24
2022-10-31T12:08:54.411Z,1132.25
2022-10-31T12:09:54.437Z,1132.15
2022-10-31T12:10:54.422Z,1132.05
2022-10-31T12:11:54.416Z,1131.95
2022-10-31T12:12:54.424Z,1131.82
2022-10-31T12:13:54.421Z,1131.7
2022-10-31T12:14:54.470Z,1131.69
2022-10-31T12:15:54.450Z,1131.52
2022-10-31T12:16:54.458Z,1131.39
2022-10-31T12:17:54.515Z,1131.29
2022-10-31T12:18:54.432Z,1131.32
2022-10-31T12:19:55.376Z,1131.29
2022-10-31T12:20:54.437Z,1131.24
2022-10-31T12:21:54.458Z,1131.25
2022-10-31T12:22:54.441Z,1131.18
2022-10-31T12:23:54.441Z,1131.09
2022-10-31T12:24:54.465Z,1131.03
2022-10-31T12:25:54.442Z,1130.94